Aérodrome :
LOGIN :

S'inscrire | Disclaimer

   EN    FR    IT 

 










Légende :    VFR   VFR Marginal   IFR   IFR Intensif   IFR Très Intensif
Visi : 
Plafond : 
>= 8 km
>= 3000ft
5 à 8 km
1000 à 3000 ft
1500m à 5 km
500 à 1000 ft
800 à 1500m
200 à 500 ft
< 800m
< 200 ft
Symboles :   Orages  Brouillard  Fortes neiges  Fortes précipitations  Vent > 20 kt
SIGMETs :   Divers  Orages  Givrage  Turbulence  Onde Orograph.  Cendres Volcan.






- Altitude de l'aérodrome : 267 ft


EGDR - Culdrose Navy

DERNIER METAR :
  • 112350Z AUTO 29017KT 9999 // FEW033/// 06/04 Q1007

METARs EXPIRÉS :
  • 112250Z 30013G23KT 9999 -SHRA FEW018 SCT040 07/03 Q1007 BLU TEMPO 5000 SHRA SCT012 BKN018TCU RMK WHT TEMPO GRN
  • 112220Z 28011KT 9999 FEW020 BKN045 07/04 Q1008 RESHRA BLU TEMPO 5000 SHRA SCT012 BKN018TCU RMK WHT TEMPO GRN
  • 112150Z 29011KT 9999 -SHRA FEW020TCU SCT080 07/04 Q1007 BLU TEMPO 5000 SHRA SCT012 BKN018TCU RMK WHT TEMPO GRN

TAF TAF EGDR
Valide du 11 à 18h jusqu'au 12 à 03h UTC


111628Z 1118/1203 30018G35KT 9999 FEW014 BKN035
TEMPO 1118/1203 7000 -SHRA FEW012 SCT022
PROB40
TEMPO 1118/1203 5000 SHRA SCT010 BKN020TCU



MET'MAP, la Météo Aéronautique d'un coup d'oeil ! - Copyright ORBIFLY Décembre 2007 - Disclaimer

ORBIFLY MET'MAP TEAM :

Programmation & Développement : Alexandra Zaïnal
Conception & Développement : Baudouin d'Aumeries
Co-Programmation & Développement : Marc-Olivier Méhu
Soutien technique & logistique : Manuel Goepfert

Contact : metmap@orbifly.com




SOURCES & CREDITS :

   NOAA